createdAt,value
2023-01-18T00:00:39.092Z,35.92
2023-01-18T00:03:09.184Z,21.73
2023-01-18T00:05:40.889Z,15.40
2023-01-18T00:08:09.384Z,15.05
2023-01-18T00:10:37.526Z,11.05
2023-01-18T00:13:07.422Z,14.70
2023-01-18T00:15:36.024Z,12.00
2023-01-18T00:18:04.788Z,24.20
2023-01-18T00:20:33.668Z,15.10
2023-01-18T00:23:02.432Z,13.52
2023-01-18T00:25:31.185Z,9.48
2023-01-18T00:27:59.099Z,11.50
2023-01-18T00:30:29.535Z,11.65
2023-01-18T00:32:59.628Z,9.68
2023-01-18T00:35:28.340Z,12.30
2023-01-18T00:37:56.244Z,10.30
2023-01-18T00:40:28.317Z,9.00
2023-01-18T00:43:13.535Z,9.35
2023-01-18T00:45:43.553Z,9.05
2023-01-18T00:48:11.463Z,13.43
2023-01-18T00:50:39.337Z,14.23
2023-01-18T00:53:07.202Z,9.13
2023-01-18T00:55:35.076Z,11.00
2023-01-18T00:58:03.172Z,14.00
2023-01-18T01:00:32.569Z,19.65
2023-01-18T01:03:01.902Z,16.63
2023-01-18T01:05:47.992Z,19.38
2023-01-18T01:08:21.552Z,18.70
2023-01-18T01:10:51.207Z,12.02
2023-01-18T01:13:38.647Z,13.13
2023-01-18T01:16:26.289Z,14.95
2023-01-18T01:19:13.806Z,8.15
2023-01-18T01:21:59.665Z,7.15
2023-01-18T01:24:45.364Z,9.98
2023-01-18T01:27:13.847Z,14.15
2023-01-18T01:29:41.763Z,9.15
2023-01-18T01:32:10.215Z,9.73
2023-01-18T01:34:39.439Z,9.65
2023-01-18T01:37:07.384Z,10.88
2023-01-18T01:39:35.276Z,18.42
2023-01-18T01:42:03.156Z,9.85
2023-01-18T01:44:55.336Z,8.75
2023-01-18T01:47:31.735Z,9.68
2023-01-18T01:50:05.206Z,10.60
2023-01-18T01:52:37.403Z,7.63
2023-01-18T01:55:09.871Z,11.10
2023-01-18T01:57:40.321Z,7.60
2023-01-18T02:00:12.936Z,7.90
2023-01-18T02:02:43.602Z,8.50
2023-01-18T02:05:14.677Z,8.93
2023-01-18T02:07:43.289Z,9.43
2023-01-18T02:10:12.543Z,8.25
2023-01-18T02:12:41.914Z,9.50
2023-01-18T02:15:10.850Z,9.10
2023-01-18T02:17:59.913Z,9.20
2023-01-18T02:21:17.082Z,8.30
2023-01-18T02:24:20.217Z,9.00
2023-01-18T02:27:12.516Z,11.95
2023-01-18T02:30:07.690Z,7.65
2023-01-18T02:32:48.381Z,11.63
2023-01-18T02:35:22.751Z,11.90
2023-01-18T02:38:00.763Z,8.30
2023-01-18T02:40:34.957Z,9.48
2023-01-18T02:43:23.691Z,13.35
2023-01-18T02:46:11.088Z,9.13
2023-01-18T02:48:41.709Z,8.30
2023-01-18T02:51:10.113Z,9.52
2023-01-18T02:53:41.869Z,8.63
2023-01-18T02:56:13.972Z,6.88
2023-01-18T02:58:46.826Z,11.35
2023-01-18T03:01:22.431Z,8.07
2023-01-18T03:03:52.432Z,15.05
2023-01-18T03:06:24.901Z,10.43
2023-01-18T03:08:54.792Z,8.93
2023-01-18T03:11:33.517Z,8.05
2023-01-18T03:14:10.859Z,9.80
2023-01-18T03:16:57.986Z,10.23
2023-01-18T03:19:52.127Z,9.77
2023-01-18T03:22:40.210Z,8.02
2023-01-18T03:25:10.317Z,8.77
2023-01-18T03:27:57.002Z,13.35
2023-01-18T03:30:43.194Z,8.85
2023-01-18T03:33:30.646Z,9.38
2023-01-18T03:36:00.410Z,8.13
2023-01-18T03:38:29.819Z,8.80
2023-01-18T03:40:59.816Z,10.77
2023-01-18T03:43:36.321Z,10.57
2023-01-18T03:46:05.029Z,11.57
2023-01-18T03:48:36.526Z,8.68
2023-01-18T03:51:13.629Z,9.85
2023-01-18T03:53:47.886Z,10.07
2023-01-18T03:56:22.136Z,11.00
2023-01-18T03:58:52.266Z,10.05
2023-01-18T04:01:20.650Z,10.00
2023-01-18T04:03:49.949Z,13.15
2023-01-18T04:06:17.875Z,10.30
2023-01-18T04:08:45.742Z,11.77
2023-01-18T04:11:13.620Z,7.88
2023-01-18T04:13:41.563Z,9.40
2023-01-18T04:16:09.640Z,12.88
2023-01-18T04:18:37.753Z,9.65
2023-01-18T04:21:07.134Z,13.57
2023-01-18T04:23:35.034Z,15.40
2023-01-18T04:26:02.907Z,9.38
2023-01-18T04:28:30.774Z,9.85
2023-01-18T04:30:58.701Z,9.48
2023-01-18T04:33:27.579Z,10.68
2023-01-18T04:35:55.652Z,9.32
2023-01-18T04:38:25.057Z,10.45
2023-01-18T04:40:52.910Z,7.10
2023-01-18T04:43:20.816Z,9.77
2023-01-18T04:45:55.314Z,8.63
2023-01-18T04:48:23.638Z,7.18
2023-01-18T04:50:51.595Z,9.57
2023-01-18T04:53:20.116Z,7.93
2023-01-18T04:55:49.583Z,7.97
2023-01-18T04:58:17.457Z,10.15
2023-01-18T05:00:45.395Z,9.85
2023-01-18T05:03:14.255Z,9.88
2023-01-18T05:05:42.105Z,9.52
2023-01-18T05:08:10.131Z,10.20
2023-01-18T05:10:38.104Z,9.40
2023-01-18T05:13:07.475Z,9.23
2023-01-18T05:15:35.619Z,9.23
2023-01-18T05:18:03.715Z,10.10
2023-01-18T05:20:31.781Z,9.60
2023-01-18T05:23:00.057Z,8.90
2023-01-18T05:25:28.244Z,9.10
2023-01-18T05:27:56.096Z,10.68
2023-01-18T05:30:25.291Z,10.38
2023-01-18T05:32:53.154Z,10.38
2023-01-18T05:35:21.076Z,9.40
2023-01-18T05:37:50.415Z,11.20
2023-01-18T05:40:18.695Z,13.23
2023-01-18T05:42:46.575Z,8.95
2023-01-18T05:45:14.429Z,10.13
2023-01-18T05:47:43.726Z,10.27
2023-01-18T05:50:12.143Z,11.02
2023-01-18T05:52:40.118Z,10.75
2023-01-18T05:55:08.670Z,9.48
2023-01-18T05:57:36.531Z,10.00
2023-01-18T06:00:13.787Z,8.77
2023-01-18T06:02:43.097Z,13.10
2023-01-18T06:05:11.918Z,11.13
2023-01-18T06:07:39.914Z,10.65
2023-01-18T06:10:08.439Z,10.77
2023-01-18T06:12:36.365Z,16.52
2023-01-18T06:15:04.455Z,9.00
2023-01-18T06:17:32.536Z,10.98
2023-01-18T06:20:01.827Z,9.07
2023-01-18T06:22:29.775Z,14.48
2023-01-18T06:24:57.760Z,10.02
2023-01-18T06:27:25.998Z,15.48
2023-01-18T06:29:54.084Z,8.90
2023-01-18T06:32:22.760Z,8.23
2023-01-18T06:34:50.671Z,12.43
2023-01-18T06:37:19.925Z,10.27
2023-01-18T06:39:48.097Z,9.05
2023-01-18T06:42:15.966Z,11.02
2023-01-18T06:44:43.839Z,8.93
2023-01-18T06:47:11.878Z,9.45
2023-01-18T06:49:40.131Z,11.05
2023-01-18T06:52:08.045Z,8.95
2023-01-18T06:54:37.287Z,10.88
2023-01-18T06:57:05.368Z,9.15
2023-01-18T06:59:33.281Z,15.15
2023-01-18T07:02:01.278Z,10.63
2023-01-18T07:04:29.479Z,11.18
2023-01-18T07:06:57.376Z,11.80
2023-01-18T07:09:25.320Z,10.38
2023-01-18T07:11:54.660Z,13.20
2023-01-18T07:14:22.664Z,10.45
2023-01-18T07:16:50.623Z,11.35
2023-01-18T07:19:18.501Z,9.30
2023-01-18T07:21:46.440Z,11.32
2023-01-18T07:24:14.316Z,10.40
2023-01-18T07:26:42.371Z,9.55
2023-01-18T07:29:12.075Z,9.60
2023-01-18T07:31:40.552Z,10.50
2023-01-18T07:34:09.922Z,10.00
2023-01-18T07:36:39.175Z,10.82
2023-01-18T07:39:07.350Z,10.60
2023-01-18T07:41:35.740Z,9.70
2023-01-18T07:44:04.033Z,14.52
2023-01-18T07:46:33.621Z,10.75
2023-01-18T07:49:02.329Z,8.77
2023-01-18T07:51:30.518Z,10.05
2023-01-18T07:53:58.930Z,11.60
2023-01-18T07:56:27.190Z,10.07
2023-01-18T07:58:55.599Z,9.77
2023-01-18T08:01:24.548Z,10.20
2023-01-18T08:03:54.695Z,9.90
2023-01-18T08:06:25.669Z,10.15
2023-01-18T08:08:55.280Z,11.68
2023-01-18T08:11:23.307Z,8.85
2023-01-18T08:13:52.646Z,10.73
2023-01-18T08:16:20.782Z,11.18
2023-01-18T08:18:50.413Z,10.65
2023-01-18T08:21:19.709Z,9.52
2023-01-18T08:23:47.665Z,9.68
2023-01-18T08:26:15.906Z,9.43
2023-01-18T08:28:44.708Z,11.50
2023-01-18T08:31:15.426Z,18.20
2023-01-18T08:33:46.019Z,11.32
2023-01-18T08:36:15.735Z,11.43
2023-01-18T08:38:49.034Z,10.70
2023-01-18T08:41:16.965Z,10.80
2023-01-18T08:43:47.438Z,12.15
2023-01-18T08:46:15.489Z,11.90
2023-01-18T08:48:43.833Z,13.73
2023-01-18T08:51:11.979Z,12.27
2023-01-18T08:53:40.299Z,10.15
2023-01-18T08:56:10.446Z,13.48
2023-01-18T08:58:38.339Z,12.98
2023-01-18T09:01:06.966Z,12.52
2023-01-18T09:03:35.507Z,14.55
2023-01-18T09:06:05.080Z,13.05
2023-01-18T09:08:32.953Z,16.50
2023-01-18T09:11:03.428Z,15.23
2023-01-18T09:13:33.253Z,13.00
2023-01-18T09:16:02.251Z,11.80
2023-01-18T09:18:30.925Z,13.82
2023-01-18T09:20:59.606Z,13.95
2023-01-18T09:23:27.512Z,17.88
2023-01-18T09:26:03.052Z,12.18
2023-01-18T09:28:32.900Z,15.40
2023-01-18T09:31:02.029Z,15.88
2023-01-18T09:33:37.573Z,13.10
2023-01-18T09:36:09.775Z,14.20
2023-01-18T09:38:38.316Z,13.07
2023-01-18T09:41:08.497Z,17.20
2023-01-18T09:43:44.017Z,18.13
2023-01-18T09:46:19.819Z,15.13
2023-01-18T09:48:54.676Z,12.60
2023-01-18T09:51:27.075Z,14.68
2023-01-18T09:54:09.159Z,17.90
2023-01-18T09:56:43.106Z,15.05
2023-01-18T09:59:21.805Z,15.85
2023-01-18T10:01:51.615Z,11.25
2023-01-18T10:04:25.353Z,11.10
2023-01-18T10:06:57.386Z,16.58
2023-01-18T10:09:28.390Z,12.38
2023-01-18T10:12:00.547Z,11.95
2023-01-18T10:14:42.527Z,13.18
2023-01-18T10:17:13.276Z,17.58
2023-01-18T10:19:42.071Z,9.93
2023-01-18T10:22:19.661Z,11.80
2023-01-18T10:24:53.606Z,15.55
2023-01-18T10:27:48.372Z,12.50
2023-01-18T10:30:28.838Z,11.13
2023-01-18T10:33:00.357Z,11.98
2023-01-18T10:35:34.349Z,13.25
2023-01-18T10:38:05.789Z,12.40
2023-01-18T10:40:35.377Z,11.43
2023-01-18T10:43:04.570Z,13.50
2023-01-18T10:45:35.914Z,15.70
2023-01-18T10:48:25.863Z,14.32
2023-01-18T10:50:55.645Z,12.82
2023-01-18T10:53:35.203Z,16.95
2023-01-18T10:56:05.900Z,15.40
2023-01-18T10:58:38.535Z,12.45
2023-01-18T11:01:15.827Z,13.07
2023-01-18T11:03:48.123Z,10.82
2023-01-18T11:06:17.270Z,12.70
2023-01-18T11:08:45.317Z,14.25
2023-01-18T11:11:19.273Z,19.70
2023-01-18T11:13:48.638Z,14.57
2023-01-18T11:16:20.723Z,16.10
2023-01-18T11:19:00.829Z,15.63
2023-01-18T11:21:40.848Z,11.45
2023-01-18T11:24:13.846Z,13.43
2023-01-18T11:26:53.554Z,14.82
2023-01-18T11:29:28.276Z,15.82
2023-01-18T11:32:03.624Z,18.13
2023-01-18T11:34:34.871Z,17.23
2023-01-18T11:37:03.940Z,17.92
2023-01-18T11:39:33.995Z,13.30
2023-01-18T11:42:24.054Z,13.93
2023-01-18T11:45:02.356Z,16.35
2023-01-18T11:47:38.898Z,17.45
2023-01-18T11:50:22.553Z,17.83
2023-01-18T11:52:55.092Z,18.17
2023-01-18T11:55:31.350Z,16.42
2023-01-18T11:58:00.802Z,15.27
2023-01-18T12:00:35.525Z,14.85
2023-01-18T12:03:26.162Z,15.98
2023-01-18T12:05:59.141Z,15.50
2023-01-18T12:08:51.041Z,13.65
2023-01-18T12:11:45.709Z,14.10
2023-01-18T12:14:26.222Z,13.40
2023-01-18T12:17:08.158Z,14.32
2023-01-18T12:19:58.336Z,13.60
2023-01-18T12:23:02.533Z,14.00
2023-01-18T12:26:10.971Z,14.60
2023-01-18T12:28:51.431Z,14.35
2023-01-18T12:31:31.729Z,13.80
2023-01-18T12:34:06.795Z,17.70
2023-01-18T12:36:54.212Z,15.15
2023-01-18T12:39:37.915Z,16.35
2023-01-18T12:42:10.557Z,15.27
2023-01-18T12:44:54.746Z,13.50
2023-01-18T12:47:36.620Z,15.05
2023-01-18T12:50:14.039Z,15.68
2023-01-18T12:52:48.839Z,22.77
2023-01-18T12:55:21.212Z,18.23
2023-01-18T12:57:52.078Z,16.23
2023-01-18T13:00:24.445Z,16.33
2023-01-18T13:02:57.325Z,16.17
2023-01-18T13:05:34.975Z,15.40
2023-01-18T13:08:09.783Z,14.60
2023-01-18T13:10:38.621Z,15.20
2023-01-18T13:13:07.885Z,13.02
2023-01-18T13:15:43.150Z,13.70
2023-01-18T13:18:17.785Z,12.93
2023-01-18T13:21:02.432Z,13.13
2023-01-18T13:23:44.538Z,13.63
2023-01-18T13:26:23.171Z,17.73
2023-01-18T13:29:07.322Z,20.42
2023-01-18T13:31:35.446Z,19.30
2023-01-18T13:34:03.752Z,15.93
2023-01-18T13:36:44.649Z,15.63
2023-01-18T13:39:17.393Z,13.55
2023-01-18T13:42:22.434Z,16.92
2023-01-18T13:45:06.854Z,16.92
2023-01-18T13:47:50.590Z,18.20
2023-01-18T13:50:47.330Z,19.17
2023-01-18T13:53:26.668Z,13.88
2023-01-18T13:56:34.209Z,12.93
2023-01-18T13:59:06.330Z,14.10
2023-01-18T14:01:37.471Z,16.75
2023-01-18T14:04:21.752Z,16.52
2023-01-18T14:06:50.906Z,16.15
2023-01-18T14:09:29.327Z,17.30
2023-01-18T14:11:58.809Z,21.50
2023-01-18T14:14:30.832Z,17.27
2023-01-18T14:17:01.919Z,14.32
2023-01-18T14:19:34.927Z,13.13
2023-01-18T14:22:26.669Z,15.00
2023-01-18T14:25:11.336Z,13.65
2023-01-18T14:27:44.773Z,13.85
2023-01-18T14:30:22.314Z,16.80
2023-01-18T14:32:58.492Z,14.13
2023-01-18T14:35:27.039Z,15.10
2023-01-18T14:38:17.421Z,17.08
2023-01-18T14:40:48.295Z,16.52
2023-01-18T14:43:22.379Z,13.60
2023-01-18T14:45:57.663Z,13.13
2023-01-18T14:48:26.388Z,10.80
2023-01-18T14:50:56.634Z,11.25
2023-01-18T14:53:26.962Z,15.13
2023-01-18T14:56:10.925Z,14.23
2023-01-18T14:58:41.040Z,14.98
2023-01-18T15:01:26.352Z,11.55
2023-01-18T15:03:55.858Z,11.70
2023-01-18T15:06:34.085Z,20.65
2023-01-18T15:09:03.602Z,13.68
2023-01-18T15:11:31.763Z,12.88
2023-01-18T15:13:59.919Z,14.02
2023-01-18T15:16:31.312Z,18.20
2023-01-18T15:19:01.878Z,13.23
2023-01-18T15:21:33.484Z,13.00
2023-01-18T15:24:06.347Z,11.75
2023-01-18T15:26:41.198Z,12.90
2023-01-18T15:29:15.090Z,15.82
2023-01-18T15:31:56.097Z,12.55
2023-01-18T15:34:29.758Z,11.90
2023-01-18T15:36:59.870Z,12.57
2023-01-18T15:39:28.210Z,13.57
2023-01-18T15:41:57.759Z,12.90
2023-01-18T15:44:36.755Z,11.75
2023-01-18T15:47:16.584Z,11.77
2023-01-18T15:49:46.857Z,14.00
2023-01-18T15:52:15.081Z,12.10
2023-01-18T15:54:43.961Z,12.02
2023-01-18T15:57:15.192Z,16.33
2023-01-18T15:59:43.331Z,14.90
2023-01-18T16:02:31.043Z,12.45
2023-01-18T16:05:22.269Z,11.32
2023-01-18T16:07:55.327Z,13.75
2023-01-18T16:10:30.380Z,18.17
2023-01-18T16:13:32.758Z,15.70
2023-01-18T16:16:20.580Z,12.90
2023-01-18T16:18:53.150Z,15.85
2023-01-18T16:21:40.209Z,15.85
2023-01-18T16:24:17.549Z,14.13
2023-01-18T16:26:46.382Z,18.38
2023-01-18T16:29:14.445Z,15.23
2023-01-18T16:31:44.944Z,13.00
2023-01-18T16:34:23.952Z,16.50
2023-01-18T16:36:53.273Z,15.02
2023-01-18T16:39:23.285Z,16.58
2023-01-18T16:41:57.974Z,14.20
2023-01-18T16:44:27.507Z,13.65
2023-01-18T16:46:55.448Z,13.07
2023-01-18T16:49:25.060Z,16.23
2023-01-18T16:51:53.002Z,18.27
2023-01-18T16:54:21.335Z,15.70
2023-01-18T16:56:50.038Z,13.70
2023-01-18T16:59:19.913Z,17.92
2023-01-18T17:01:48.252Z,14.35
2023-01-18T17:04:16.589Z,12.88
2023-01-18T17:06:45.934Z,12.02
2023-01-18T17:09:21.018Z,13.45
2023-01-18T17:11:49.075Z,14.48
2023-01-18T17:14:17.552Z,17.80
2023-01-18T17:16:46.687Z,14.60
2023-01-18T17:19:16.019Z,15.98
2023-01-18T17:21:47.034Z,13.93
2023-01-18T17:24:16.336Z,17.25
2023-01-18T17:26:45.021Z,15.48
2023-01-18T17:29:17.606Z,16.27
2023-01-18T17:31:52.096Z,15.20
2023-01-18T17:34:27.873Z,15.02
2023-01-18T17:36:58.901Z,13.82
2023-01-18T17:39:37.359Z,13.43
2023-01-18T17:42:22.284Z,13.93
2023-01-18T17:44:50.888Z,12.95
2023-01-18T17:47:18.899Z,17.02
2023-01-18T17:49:46.936Z,15.18
2023-01-18T17:52:16.250Z,17.25
2023-01-18T17:54:44.230Z,16.00
2023-01-18T17:57:12.298Z,16.80
2023-01-18T17:59:40.296Z,18.50
2023-01-18T18:02:10.485Z,17.08
2023-01-18T18:04:38.424Z,14.50
2023-01-18T18:07:06.446Z,15.82
2023-01-18T18:09:38.693Z,17.33
2023-01-18T18:12:07.389Z,19.38
2023-01-18T18:14:35.435Z,13.15
2023-01-18T18:17:03.835Z,16.92
2023-01-18T18:19:32.388Z,17.98
2023-01-18T18:22:00.259Z,19.83
2023-01-18T18:24:28.293Z,15.73
2023-01-18T18:26:57.546Z,19.10
2023-01-18T18:29:25.655Z,23.40
2023-01-18T18:31:53.648Z,19.25
2023-01-18T18:34:21.611Z,25.10
2023-01-18T18:36:49.481Z,60.58
2023-01-18T18:39:17.388Z,41.65
2023-01-18T18:41:46.927Z,28.88
2023-01-18T18:44:16.334Z,30.98
2023-01-18T18:46:44.278Z,31.42
2023-01-18T18:49:12.468Z,30.45
2023-01-18T18:51:40.419Z,29.67
2023-01-18T18:54:10.389Z,33.03
2023-01-18T18:56:38.873Z,29.92
2023-01-18T18:59:06.916Z,28.75
2023-01-18T19:01:36.280Z,25.70
2023-01-18T19:04:05.180Z,24.27
2023-01-18T19:06:33.117Z,31.55
2023-01-18T19:09:01.243Z,27.48
2023-01-18T19:11:29.230Z,31.25
2023-01-18T19:13:57.479Z,34.25
2023-01-18T19:16:25.745Z,31.02
2023-01-18T19:18:55.091Z,27.20
2023-01-18T19:21:23.169Z,70.20
2023-01-18T19:23:52.110Z,37.55
2023-01-18T19:26:20.099Z,37.47
2023-01-18T19:28:48.094Z,39.00
2023-01-18T19:31:16.078Z,33.75
2023-01-18T19:33:43.997Z,31.15
2023-01-18T19:36:15.585Z,33.17
2023-01-18T19:38:48.170Z,34.20
2023-01-18T19:41:20.568Z,39.78
2023-01-18T19:43:50.399Z,39.60
2023-01-18T19:46:20.101Z,47.38
2023-01-18T19:48:48.180Z,40.45
2023-01-18T19:51:23.171Z,41.63
2023-01-18T19:53:52.939Z,62.53
2023-01-18T19:56:20.839Z,56.63
2023-01-18T19:58:49.967Z,50.28
2023-01-18T20:01:34.735Z,38.08
2023-01-18T20:04:04.240Z,44.92
2023-01-18T20:06:34.135Z,50.10
2023-01-18T20:09:04.019Z,64.25
2023-01-18T20:11:33.623Z,64.53
2023-01-18T20:14:01.603Z,40.55
2023-01-18T20:16:29.573Z,36.28
2023-01-18T20:18:57.963Z,37.00
2023-01-18T20:21:25.882Z,37.45
2023-01-18T20:23:55.998Z,48.50
2023-01-18T20:26:35.293Z,65.72
2023-01-18T20:29:06.528Z,73.13
2023-01-18T20:31:36.255Z,32.70
2023-01-18T20:34:05.233Z,33.22
2023-01-18T20:36:34.690Z,32.53
2023-01-18T20:39:04.111Z,169.43
2023-01-18T20:41:32.092Z,43.30
2023-01-18T20:44:00.296Z,40.53
2023-01-18T20:46:28.392Z,34.13
2023-01-18T20:48:56.457Z,30.35
2023-01-18T20:51:24.392Z,37.53
2023-01-18T20:53:52.353Z,33.25
2023-01-18T20:56:30.002Z,38.65
2023-01-18T20:58:58.860Z,44.20
2023-01-18T21:01:32.073Z,47.08
2023-01-18T21:04:01.734Z,41.53
2023-01-18T21:06:30.185Z,50.28
2023-01-18T21:09:00.089Z,26.50
2023-01-18T21:11:29.471Z,34.28
2023-01-18T21:13:59.849Z,28.60
2023-01-18T21:16:28.507Z,39.35
2023-01-18T21:18:58.848Z,36.63
2023-01-18T21:21:29.338Z,55.05
2023-01-18T21:23:57.267Z,38.38
2023-01-18T21:26:25.225Z,46.53
2023-01-18T21:28:55.236Z,46.58
2023-01-18T21:31:23.676Z,60.70
2023-01-18T21:33:51.561Z,62.97
2023-01-18T21:36:20.052Z,52.72
2023-01-18T21:38:48.072Z,58.00
2023-01-18T21:41:33.768Z,54.05
2023-01-18T21:44:20.453Z,48.97
2023-01-18T21:46:51.048Z,42.33
2023-01-18T21:52:43.509Z,84.15
2023-01-18T21:55:11.625Z,49.20
2023-01-18T21:57:39.481Z,53.78
2023-01-18T22:00:10.534Z,57.72
2023-01-18T22:02:39.270Z,55.10
2023-01-18T22:05:09.781Z,56.58
2023-01-18T22:07:37.787Z,44.55
2023-01-18T22:10:07.355Z,45.97
2023-01-18T22:12:38.952Z,47.35
2023-01-18T22:15:09.467Z,55.10
2023-01-18T22:17:37.334Z,54.40
2023-01-18T22:20:05.890Z,60.85
2023-01-18T22:22:33.763Z,81.55
2023-01-18T22:25:02.275Z,50.90
2023-01-18T22:27:30.438Z,41.95
2023-01-18T22:29:58.455Z,39.50
2023-01-18T22:32:29.313Z,74.32
2023-01-18T22:34:57.479Z,44.38
2023-01-18T22:37:25.919Z,32.97
2023-01-18T22:39:53.821Z,43.08
2023-01-18T22:42:21.689Z,35.85
2023-01-18T22:44:49.753Z,29.13
2023-01-18T22:47:17.688Z,32.55
2023-01-18T22:49:47.062Z,30.13
2023-01-18T22:52:14.954Z,34.97
2023-01-18T22:54:42.835Z,28.40
2023-01-18T22:57:10.864Z,32.78
2023-01-18T22:59:38.791Z,36.90
2023-01-18T23:02:06.657Z,30.60
2023-01-18T23:04:34.570Z,42.05
2023-01-18T23:07:03.794Z,32.95
2023-01-18T23:09:31.892Z,31.55
2023-01-18T23:11:59.862Z,23.88
2023-01-18T23:14:45.538Z,29.83
2023-01-18T23:17:31.937Z,33.28
2023-01-18T23:19:59.904Z,29.48
2023-01-18T23:22:29.302Z,32.58
2023-01-18T23:24:57.160Z,24.88
2023-01-18T23:27:25.777Z,24.00
2023-01-18T23:29:58.788Z,27.23
2023-01-18T23:32:30.180Z,23.70
2023-01-18T23:34:58.399Z,22.88
2023-01-18T23:37:27.142Z,21.92
2023-01-18T23:40:14.392Z,21.13
2023-01-18T23:43:00.426Z,23.63
2023-01-18T23:45:46.357Z,26.88
2023-01-18T23:48:34.273Z,30.85
2023-01-18T23:51:20.224Z,34.40
2023-01-18T23:54:05.892Z,32.88
2023-01-18T23:56:35.213Z,26.63
2023-01-18T23:59:03.306Z,20.42
